Flight Track Log - Related Links

Times and Time Zones

All times are in EDT time to prevent confusion due to time zone crossing. See the CTL17 flight status page for this flight to view local times or setup timezone preferences in your user account.

Time Position Orientation Groundspeed Altitude Reporting Facility
EDT Latitude Longitude Course Direction KTS MPH feet Rate Location/Type
Tue 06:40:34 PM 41.5475 -81.7567 315° West 135 155 2,100  Level Cleveland Center
Tue 06:41:35 PM 41.5700 -81.8014 304° West 163 188 2,400 545 Climbing Cleveland Center
Tue 06:42:35 PM 41.5881 -81.8547 294° West 133 153 3,200 744 Climbing Cleveland Center
Tue 06:43:36 PM 41.5917 -81.9019 276° West 127 146 3,900 422 Climbing Cleveland Center
Tue 06:44:43 PM 41.6017 -81.9522 285° West 138 159 4,100 98 Climbing Cleveland Center
Tue 06:45:38 PM 41.6094 -81.9994 282° West 139 160 4,100  Level Cleveland Center
Tue 06:46:45 PM 41.6189 -82.0608 282° West 142 163 4,100  Level Cleveland Center
Tue 06:47:45 PM 41.6289 -82.1083 286° West 142 163 4,100  Level Cleveland Center
Tue 06:48:46 PM 41.6364 -82.1611 281° West 143 165 4,100 49 Level Cleveland Center
Tue 06:49:47 PM 41.6439 -82.2142 281° West 141 162 4,200  Climbing Cleveland Center
Tue 06:50:48 PM 41.6517 -82.2672 281° West 144 166 4,100 -50 Descending Cleveland Center
Tue 06:51:48 PM 41.6592 -82.3175 281° West 139 160 4,100  Level Cleveland Center
Tue 06:52:49 PM 41.6686 -82.3761 282° West 145 167 4,100  Level Cleveland Center
Tue 06:53:50 PM 41.6783 -82.4264 285° West 143 165 4,100  Level Cleveland Center
Tue 06:54:58 PM 41.6919 -82.4822 288° West 147 169 4,100  Level Cleveland Center
Tue 06:55:34 PM 41.6956 -82.5131 279° West 145 167 4,100  Level Cleveland Center
Tue 06:56:35 PM 41.7031 -82.5661 281° West 144 166 4,100  Level Cleveland Center
Tue 06:57:36 PM 41.7125 -82.6192 283° West 143 165 4,100  Level Cleveland Center
Tue 06:58:37 PM 41.7242 -82.6725 286° West 144 166 4,100  Level Cleveland Center
Tue 06:59:38 PM 41.7400 -82.7203 294° West 143 165 4,100  Level Cleveland Center
Tue 07:00:39 PM 41.7536 -82.7708 290° West 144 166 4,100  Level Cleveland Center
Tue 07:01:40 PM 41.7692 -82.8217 292° West 147 169 4,100  Level Cleveland Center
Tue 07:02:41 PM 41.7869 -82.8722 295° West 143 165 4,100  Level Cleveland Center
Tue 07:03:42 PM 41.8028 -82.9231 293° West 141 162 4,100  Level Cleveland Center
Tue 07:04:43 PM 41.8161 -82.9736 290° West 142 163 4,100 -98 Level Cleveland Center
Tue 07:05:44 PM 41.8319 -83.0244 293° West 148 170 3,900 -246 Descending Cleveland Center
Tue 07:06:45 PM 41.8494 -83.0753 295° West 153 176 3,600 -393 Descending Cleveland Center
Tue 07:07:46 PM 41.8800 -83.1156 316° Northwest 182 209 3,100 -246 Descending Cleveland Center
Tue 07:08:47 PM 41.9258 -83.1117 North 168 193 3,100  Level Cleveland Center
Tue 07:09:48 PM 41.9719 -83.1053 North 175 201 3,100  Level Cleveland Center
Tue 07:10:49 PM 42.0200 -83.0931 11° North 173 199 3,100  Level Cleveland Center
Tue 07:11:50 PM 42.0642 -83.0808 12° North 167 192 3,100 -49 Level Cleveland Center
Tue 07:12:51 PM 42.1144 -83.0689 10° North 166 191 3,000 -50 Descending Cleveland Center
Tue 07:13:51 PM 42.1583 -83.0564 12° North 162 186 3,000  Level Cleveland Center
Tue 07:14:59 PM 42.2067 -83.0417 13° North 162 186 3,000  Level Cleveland Center
Tue 07:15:53 PM 42.2467 -83.0292 13° North 164 189 3,000  Level Cleveland Center
Tue 07:16:54 PM 42.2928 -83.0169 11° North 166 191 3,000 49 Level Cleveland Center
Tue 07:17:55 PM 42.3389 -83.0017 14° North 168 193 3,100  Climbing Cleveland Center
Tue 07:18:56 PM 42.3847 -83.0036 358° North 161 185 3,000 -49 Descending Cleveland Center
Tue 07:19:57 PM 42.4219 -83.0219 340° North 157 181 3,000  Level Cleveland Center
Tue 07:20:58 PM 42.4519 -83.0708 310° West 153 176 3,000  Level Cleveland Center
Tue 07:21:59 PM 42.4783 -83.1142 310° West 153 176 3,000  Level Cleveland Center
Tue 07:23:00 PM 42.5083 -83.1603 311° West 154 177 3,000  Level Cleveland Center
Tue 07:24:01 PM 42.5344 -83.2036 309° West 153 176 3,000 49 Level Cleveland Center
Tue 07:25:02 PM 42.5669 -83.2417 319° Northwest 151 174 3,100  Climbing Cleveland Center
Tue 07:26:03 PM 42.5997 -83.2742 324° Northwest 152 175 3,000 -246 Descending Cleveland Center
Tue 07:27:04 PM 42.6364 -83.3067 327° Northwest 148 170 2,600 -595 Descending Cleveland Center
Tue 07:28:04 PM 42.6606 -83.3475 309° West 126 145 1,800 -645 Descending Cleveland Center
Tue 07:29:05 PM 42.6658 -83.3872 280° West 111 128 1,300 -492 Descending Cleveland Center

Login

Don't have an account? Register now (free) for customized features, flight alerts, and more!